createdAt,value
2019-02-25T00:00:35.919Z,7.03
2019-02-25T00:02:39.666Z,6.50
2019-02-25T00:04:43.334Z,6.60
2019-02-25T00:06:47.015Z,6.53
2019-02-25T00:08:50.701Z,6.83
2019-02-25T00:10:54.466Z,6.50
2019-02-25T00:12:58.127Z,5.87
2019-02-25T00:15:02.698Z,7.37
2019-02-25T00:17:06.353Z,7.13
2019-02-25T00:19:10.022Z,7.57
2019-02-25T00:21:13.714Z,7.63
2019-02-25T00:23:17.379Z,7.57
2019-02-25T00:25:21.131Z,7.70
2019-02-25T00:27:24.798Z,7.43
2019-02-25T00:29:28.511Z,7.00
2019-02-25T00:31:32.295Z,7.47
2019-02-25T00:33:35.975Z,7.57
2019-02-25T00:35:39.672Z,8.20
2019-02-25T00:37:43.319Z,8.03
2019-02-25T00:39:46.978Z,8.90
2019-02-25T00:41:50.779Z,8.30
2019-02-25T00:43:54.428Z,9.93
2019-02-25T00:45:58.106Z,8.80
2019-02-25T00:48:01.831Z,6.43
2019-02-25T00:50:08.431Z,6.20
2019-02-25T00:52:12.113Z,6.73
2019-02-25T00:54:15.882Z,7.00
2019-02-25T00:56:19.605Z,7.30
2019-02-25T00:58:23.258Z,6.90
2019-02-25T01:00:26.964Z,7.03
2019-02-25T01:02:30.605Z,6.43
2019-02-25T01:04:34.266Z,5.63
2019-02-25T01:06:37.977Z,6.20
2019-02-25T01:08:41.691Z,5.20
2019-02-25T01:10:45.377Z,5.20
2019-02-25T01:12:49.033Z,5.90
2019-02-25T01:14:52.771Z,5.83
2019-02-25T01:16:56.453Z,5.70
2019-02-25T01:19:00.105Z,5.37
2019-02-25T01:21:03.857Z,5.83
2019-02-25T01:23:07.516Z,5.17
2019-02-25T01:25:12.412Z,5.50
2019-02-25T01:27:16.096Z,5.77
2019-02-25T01:29:19.759Z,5.90
2019-02-25T01:31:23.460Z,5.37
2019-02-25T01:33:27.101Z,5.93
2019-02-25T01:35:30.771Z,5.67
2019-02-25T01:37:34.457Z,5.70
2019-02-25T01:39:38.109Z,5.70
2019-02-25T01:41:41.793Z,5.73
2019-02-25T01:43:45.473Z,5.57
2019-02-25T01:45:49.114Z,5.50
2019-02-25T01:47:52.795Z,5.20
2019-02-25T01:49:56.461Z,5.77
2019-02-25T01:52:00.346Z,5.43
2019-02-25T01:54:04.034Z,6.13
2019-02-25T01:56:07.690Z,6.03
2019-02-25T01:58:11.746Z,6.73
2019-02-25T02:00:19.175Z,6.97
2019-02-25T02:02:22.976Z,6.17
2019-02-25T02:04:26.677Z,6.20
2019-02-25T02:06:30.324Z,6.80
2019-02-25T02:08:34.011Z,6.33
2019-02-25T02:10:37.768Z,13.50
2019-02-25T02:12:41.422Z,11.80
2019-02-25T02:14:45.218Z,10.67
2019-02-25T02:16:49.169Z,11.63
2019-02-25T02:18:52.846Z,11.30
2019-02-25T02:20:56.505Z,11.13
2019-02-25T02:23:00.167Z,8.37
2019-02-25T02:25:03.846Z,7.77
2019-02-25T02:27:07.635Z,7.90
2019-02-25T02:29:11.314Z,9.57
2019-02-25T02:31:14.994Z,8.17
2019-02-25T02:33:18.641Z,7.83
2019-02-25T02:35:22.326Z,7.50
2019-02-25T02:37:25.974Z,8.83
2019-02-25T02:39:29.636Z,7.40
2019-02-25T02:41:52.566Z,6.60
2019-02-25T02:43:56.235Z,6.50
2019-02-25T02:46:02.856Z,6.87
2019-02-25T02:48:26.083Z,6.63
2019-02-25T02:50:29.765Z,6.57
2019-02-25T02:52:33.428Z,6.23
2019-02-25T02:54:37.120Z,6.30
2019-02-25T02:56:40.798Z,5.73
2019-02-25T02:58:44.470Z,6.23
2019-02-25T03:00:48.162Z,5.87
2019-02-25T03:02:51.823Z,6.37
2019-02-25T03:04:55.473Z,5.77
2019-02-25T03:06:59.239Z,6.03
2019-02-25T03:09:04.598Z,6.23
2019-02-25T03:11:08.395Z,5.50
2019-02-25T03:13:12.153Z,6.53
2019-02-25T03:15:18.181Z,5.80
2019-02-25T03:17:21.862Z,5.47
2019-02-25T03:19:25.525Z,6.20
2019-02-25T03:21:29.220Z,6.17
2019-02-25T03:23:32.894Z,6.13
2019-02-25T03:25:36.555Z,5.90
2019-02-25T03:27:40.547Z,6.07
2019-02-25T03:29:44.219Z,5.70
2019-02-25T03:31:47.972Z,6.27
2019-02-25T03:33:51.682Z,5.80
2019-02-25T03:35:55.339Z,6.27
2019-02-25T03:37:59.035Z,5.53
2019-02-25T03:40:02.699Z,5.67
2019-02-25T03:42:06.524Z,6.20
2019-02-25T03:44:10.180Z,5.67
2019-02-25T03:46:13.835Z,6.03
2019-02-25T03:48:17.515Z,6.00
2019-02-25T03:50:21.181Z,5.60
2019-02-25T03:52:24.889Z,5.97
2019-02-25T03:54:28.539Z,5.90
2019-02-25T03:56:32.192Z,5.67
2019-02-25T03:58:35.874Z,6.10
2019-02-25T04:00:39.563Z,5.87
2019-02-25T04:02:43.222Z,6.23
2019-02-25T04:04:48.478Z,6.77
2019-02-25T04:06:52.138Z,6.30
2019-02-25T04:08:56.176Z,6.73
2019-02-25T04:10:59.892Z,6.50
2019-02-25T04:13:03.586Z,6.30
2019-02-25T04:15:10.372Z,6.47
2019-02-25T04:17:14.019Z,6.37
2019-02-25T04:19:17.711Z,6.07
2019-02-25T04:21:21.379Z,6.70
2019-02-25T04:23:25.065Z,6.40
2019-02-25T04:25:28.715Z,6.87
2019-02-25T04:27:32.378Z,6.90
2019-02-25T04:29:36.059Z,5.90
2019-02-25T04:31:39.738Z,5.97
2019-02-25T04:33:43.445Z,6.00
2019-02-25T04:35:47.166Z,6.27
2019-02-25T04:37:50.829Z,6.20
2019-02-25T04:39:54.511Z,6.10
2019-02-25T04:41:58.188Z,6.00
2019-02-25T04:44:01.878Z,6.30
2019-02-25T04:46:05.758Z,6.33
2019-02-25T04:48:09.414Z,6.70
2019-02-25T04:50:13.701Z,6.43
2019-02-25T04:52:17.459Z,6.30
2019-02-25T04:54:21.140Z,5.67
2019-02-25T04:56:25.487Z,6.57
2019-02-25T04:58:29.565Z,6.80
2019-02-25T05:00:33.261Z,7.67
2019-02-25T05:02:36.918Z,7.17
2019-02-25T05:04:40.609Z,6.87
2019-02-25T05:06:44.271Z,6.10
2019-02-25T05:08:47.924Z,6.37
2019-02-25T05:10:51.604Z,6.73
2019-02-25T05:12:56.858Z,7.00
2019-02-25T05:15:00.535Z,7.20
2019-02-25T05:17:04.186Z,7.20
2019-02-25T05:19:07.950Z,6.37
2019-02-25T05:21:11.649Z,6.63
2019-02-25T05:23:15.336Z,7.10
2019-02-25T05:25:19.057Z,6.63
2019-02-25T05:27:22.815Z,5.83
2019-02-25T05:29:26.493Z,6.40
2019-02-25T05:31:30.199Z,6.63
2019-02-25T05:33:33.914Z,6.83
2019-02-25T05:35:37.584Z,6.13
2019-02-25T05:37:41.274Z,7.07
2019-02-25T05:39:44.939Z,6.80
2019-02-25T05:41:48.614Z,6.17
2019-02-25T05:43:52.288Z,6.50
2019-02-25T05:45:56.100Z,7.07
2019-02-25T05:47:59.779Z,7.07
2019-02-25T05:50:04.364Z,7.07
2019-02-25T05:52:08.125Z,7.53
2019-02-25T05:54:11.779Z,6.27
2019-02-25T05:56:15.978Z,6.30
2019-02-25T05:58:19.632Z,5.60
2019-02-25T06:00:25.471Z,6.83
2019-02-25T06:02:29.162Z,5.83
2019-02-25T06:04:32.922Z,5.80
2019-02-25T06:06:36.610Z,6.60
2019-02-25T06:08:40.306Z,6.30
2019-02-25T06:10:43.967Z,6.10
2019-02-25T06:12:47.668Z,6.17
2019-02-25T06:14:51.324Z,6.57
2019-02-25T06:16:54.991Z,6.13
2019-02-25T06:18:58.675Z,6.53
2019-02-25T06:21:02.349Z,7.03
2019-02-25T06:23:06.040Z,6.87
2019-02-25T06:25:11.714Z,9.77
2019-02-25T06:27:15.478Z,7.37
2019-02-25T06:29:19.146Z,7.17
2019-02-25T06:31:22.906Z,8.10
2019-02-25T06:33:26.582Z,7.93
2019-02-25T06:35:30.254Z,7.20
2019-02-25T06:37:33.945Z,7.70
2019-02-25T06:39:37.635Z,7.00
2019-02-25T06:41:41.419Z,6.70
2019-02-25T06:43:45.109Z,6.80
2019-02-25T06:45:48.823Z,5.50
2019-02-25T06:47:52.514Z,6.33
2019-02-25T06:49:56.185Z,6.13
2019-02-25T06:51:59.850Z,7.03
2019-02-25T06:54:03.709Z,7.17
2019-02-25T06:56:07.495Z,8.97
2019-02-25T06:58:11.176Z,8.57
2019-02-25T07:00:17.109Z,7.20
2019-02-25T07:02:20.888Z,6.97
2019-02-25T07:04:26.191Z,8.23
2019-02-25T07:06:31.413Z,7.70
2019-02-25T07:08:51.407Z,7.23
2019-02-25T07:11:11.425Z,7.40
2019-02-25T07:13:19.423Z,8.63
2019-02-25T07:15:24.880Z,7.73
2019-02-25T07:17:39.151Z,8.13
2019-02-25T07:19:47.204Z,7.80
2019-02-25T07:22:01.130Z,8.37
2019-02-25T07:24:09.294Z,7.93
2019-02-25T07:26:23.764Z,7.60
2019-02-25T07:28:37.639Z,7.73
2019-02-25T07:30:42.914Z,7.83
2019-02-25T07:32:50.852Z,6.77
2019-02-25T07:35:12.343Z,7.00
2019-02-25T07:37:35.570Z,7.30
2019-02-25T07:39:53.002Z,7.20
2019-02-25T07:42:10.398Z,7.47
2019-02-25T07:44:15.799Z,7.00
2019-02-25T07:46:21.060Z,7.63
2019-02-25T07:48:38.419Z,7.40
2019-02-25T07:50:59.912Z,6.90
2019-02-25T07:53:21.375Z,7.03
2019-02-25T07:55:44.335Z,7.07
2019-02-25T07:57:52.575Z,7.33
2019-02-25T07:59:57.917Z,7.67
2019-02-25T08:02:06.131Z,7.87
2019-02-25T08:04:19.935Z,7.17
2019-02-25T08:06:37.315Z,8.17
2019-02-25T08:08:42.578Z,8.57
2019-02-25T08:10:50.520Z,8.30
2019-02-25T08:12:55.819Z,8.10
2019-02-25T08:15:04.151Z,7.60
2019-02-25T08:17:11.988Z,7.60
2019-02-25T08:19:17.323Z,8.20
2019-02-25T08:21:37.587Z,8.60
2019-02-25T08:23:42.857Z,8.50
2019-02-25T08:25:48.130Z,8.10
2019-02-25T08:27:59.175Z,7.63
2019-02-25T08:30:07.196Z,7.37
2019-02-25T08:32:12.462Z,7.80
2019-02-25T08:34:19.002Z,8.43
2019-02-25T08:36:47.102Z,8.13
2019-02-25T08:39:07.583Z,9.43
2019-02-25T08:41:30.519Z,8.90
2019-02-25T08:43:41.833Z,8.93
2019-02-25T08:45:58.614Z,8.53
2019-02-25T08:48:06.815Z,8.37
2019-02-25T08:50:12.912Z,7.30
2019-02-25T08:52:16.574Z,8.37
2019-02-25T08:54:20.274Z,10.60
2019-02-25T08:56:23.936Z,9.37
2019-02-25T08:58:27.616Z,6.70
2019-02-25T09:00:31.265Z,5.93
2019-02-25T09:02:34.921Z,5.70
2019-02-25T09:04:38.642Z,6.10
2019-02-25T09:06:42.391Z,5.50
2019-02-25T09:08:46.050Z,5.33
2019-02-25T09:10:49.797Z,5.43
2019-02-25T09:12:53.454Z,5.63
2019-02-25T09:14:57.129Z,5.50
2019-02-25T09:17:00.786Z,6.47
2019-02-25T09:19:04.479Z,5.83
2019-02-25T09:21:08.363Z,5.83
2019-02-25T09:23:12.075Z,5.37
2019-02-25T09:25:16.349Z,4.33
2019-02-25T09:27:20.013Z,4.13
2019-02-25T09:29:23.672Z,3.83
2019-02-25T09:31:27.371Z,4.40
2019-02-25T09:33:31.028Z,4.90
2019-02-25T09:35:34.727Z,5.37
2019-02-25T09:37:38.411Z,4.20
2019-02-25T09:39:42.068Z,3.73
2019-02-25T09:41:45.867Z,3.37
2019-02-25T09:43:49.519Z,3.70
2019-02-25T09:45:56.365Z,3.47
2019-02-25T09:48:00.029Z,3.70
2019-02-25T09:50:04.088Z,4.17
2019-02-25T09:52:07.772Z,3.80
2019-02-25T09:54:11.430Z,3.97
2019-02-25T09:56:15.126Z,3.87
2019-02-25T09:58:18.791Z,3.10
2019-02-25T10:00:23.923Z,2.70
2019-02-25T10:02:27.614Z,2.30
2019-02-25T10:04:31.406Z,2.20
2019-02-25T10:06:35.098Z,2.57
2019-02-25T10:08:38.747Z,2.70
2019-02-25T10:10:42.424Z,2.30
2019-02-25T10:12:46.115Z,2.57
2019-02-25T10:14:49.789Z,3.00
2019-02-25T10:16:53.995Z,2.60
2019-02-25T10:18:57.723Z,3.03
2019-02-25T10:21:01.447Z,2.50
2019-02-25T10:23:05.121Z,2.60
2019-02-25T10:25:10.278Z,2.77
2019-02-25T10:27:13.970Z,2.43
2019-02-25T10:29:17.619Z,2.93
2019-02-25T10:31:21.292Z,3.03
2019-02-25T10:33:24.950Z,2.53
2019-02-25T10:35:29.713Z,2.73
2019-02-25T10:37:34.278Z,2.40
2019-02-25T10:39:38.353Z,2.57
2019-02-25T10:41:42.015Z,2.60
2019-02-25T10:43:45.702Z,3.00
2019-02-25T10:45:49.353Z,3.00
2019-02-25T10:47:57.548Z,2.90
2019-02-25T10:50:00.720Z,2.67
2019-02-25T10:52:04.255Z,3.60
2019-02-25T10:54:07.960Z,3.13
2019-02-25T10:56:19.263Z,3.67
2019-02-25T10:58:22.756Z,3.40
2019-02-25T11:00:26.439Z,3.03
2019-02-25T11:02:30.093Z,3.10
2019-02-25T11:04:33.763Z,3.10
2019-02-25T11:06:37.718Z,2.70
2019-02-25T11:08:43.584Z,3.03
2019-02-25T11:10:56.035Z,2.97
2019-02-25T11:13:01.634Z,2.80
2019-02-25T11:15:09.587Z,2.93
2019-02-25T11:17:16.079Z,3.40
2019-02-25T11:19:20.015Z,3.30
2019-02-25T11:21:23.706Z,3.77
2019-02-25T11:23:27.367Z,3.37
2019-02-25T11:25:31.205Z,3.73
2019-02-25T11:27:35.890Z,3.00
2019-02-25T11:29:42.049Z,3.30
2019-02-25T11:31:47.266Z,3.47
2019-02-25T11:33:51.070Z,3.30
2019-02-25T11:35:54.741Z,2.87
2019-02-25T11:37:59.809Z,2.70
2019-02-25T11:40:05.104Z,2.90
2019-02-25T11:42:10.800Z,2.90
2019-02-25T11:44:14.154Z,3.40
2019-02-25T11:46:17.844Z,3.00
2019-02-25T11:48:22.695Z,2.90
2019-02-25T11:50:26.646Z,3.33
2019-02-25T11:52:30.321Z,3.47
2019-02-25T11:54:33.966Z,3.40
2019-02-25T11:56:37.657Z,3.93
2019-02-25T11:58:41.323Z,3.30
2019-02-25T12:00:45.018Z,3.63
2019-02-25T12:02:48.674Z,3.20
2019-02-25T12:04:52.464Z,3.03
2019-02-25T12:06:56.144Z,3.30
2019-02-25T12:08:59.802Z,2.93
2019-02-25T12:11:03.499Z,3.30
2019-02-25T12:13:07.164Z,3.33
2019-02-25T12:15:22.342Z,3.47
2019-02-25T12:17:26.251Z,2.87
2019-02-25T12:19:29.910Z,2.77
2019-02-25T12:21:33.571Z,3.33
2019-02-25T12:23:37.259Z,3.13
2019-02-25T12:25:40.922Z,3.40
2019-02-25T12:27:44.626Z,2.33
2019-02-25T12:29:48.307Z,3.17
2019-02-25T12:31:52.016Z,3.40
2019-02-25T12:33:55.683Z,3.67
2019-02-25T12:35:59.358Z,2.80
2019-02-25T12:38:03.089Z,3.20
2019-02-25T12:40:15.491Z,2.70
2019-02-25T12:42:19.201Z,3.20
2019-02-25T12:44:22.847Z,3.00
2019-02-25T12:46:26.516Z,2.80
2019-02-25T12:48:30.202Z,2.93
2019-02-25T12:50:33.865Z,2.40
2019-02-25T12:52:37.551Z,2.17
2019-02-25T12:54:41.216Z,2.60
2019-02-25T12:56:44.888Z,1.93
2019-02-25T12:58:48.674Z,1.90
2019-02-25T13:00:52.338Z,2.60
2019-02-25T13:02:56.020Z,2.63
2019-02-25T13:04:59.684Z,2.50
2019-02-25T13:07:03.362Z,2.10
2019-02-25T13:09:09.991Z,2.20
2019-02-25T13:11:13.650Z,2.47
2019-02-25T13:13:17.352Z,3.50
2019-02-25T13:15:24.487Z,2.27
2019-02-25T13:17:28.155Z,2.00
2019-02-25T13:19:31.831Z,1.90
2019-02-25T13:21:35.494Z,2.30
2019-02-25T13:23:39.346Z,2.30
2019-02-25T13:25:43.005Z,2.27
2019-02-25T13:27:46.676Z,2.00
2019-02-25T13:29:50.442Z,2.00
2019-02-25T13:31:54.177Z,2.03
2019-02-25T13:33:58.099Z,2.00
2019-02-25T13:36:01.856Z,1.70
2019-02-25T13:38:05.611Z,1.80
2019-02-25T13:40:13.516Z,1.70
2019-02-25T13:42:17.348Z,1.97
2019-02-25T13:44:21.129Z,1.30
2019-02-25T13:46:24.956Z,1.30
2019-02-25T13:48:28.615Z,1.40
2019-02-25T13:50:32.487Z,1.40
2019-02-25T13:52:36.218Z,1.40
2019-02-25T13:54:39.990Z,1.20
2019-02-25T13:56:45.173Z,1.30
2019-02-25T13:58:49.119Z,1.40
2019-02-25T14:00:52.801Z,1.43
2019-02-25T14:02:56.638Z,1.60
2019-02-25T14:05:00.576Z,1.37
2019-02-25T14:07:04.433Z,1.50
2019-02-25T14:09:08.607Z,1.63
2019-02-25T14:11:12.363Z,1.63
2019-02-25T14:13:16.116Z,1.30
2019-02-25T14:15:22.569Z,1.80
2019-02-25T14:17:26.446Z,1.60
2019-02-25T14:19:30.533Z,1.90
2019-02-25T14:21:34.483Z,1.40
2019-02-25T14:23:40.553Z,1.50
2019-02-25T14:25:44.509Z,2.00
2019-02-25T14:27:48.166Z,1.73
2019-02-25T14:29:52.014Z,1.57
2019-02-25T14:31:55.763Z,1.90
2019-02-25T14:33:59.438Z,1.90
2019-02-25T14:36:03.610Z,1.53
2019-02-25T14:38:14.669Z,1.70
2019-02-25T14:40:19.854Z,1.50
2019-02-25T14:42:26.050Z,2.20
2019-02-25T14:44:32.406Z,1.63
2019-02-25T14:46:35.071Z,1.97
2019-02-25T14:48:38.810Z,1.63
2019-02-25T14:50:42.974Z,2.00
2019-02-25T14:52:46.887Z,1.73
2019-02-25T14:54:50.583Z,1.83
2019-02-25T14:56:54.851Z,2.13
2019-02-25T14:59:00.643Z,2.07
2019-02-25T15:01:06.037Z,1.97
2019-02-25T15:03:09.815Z,1.70
2019-02-25T15:05:15.033Z,1.83
2019-02-25T15:07:19.039Z,1.67
2019-02-25T15:09:22.804Z,1.90
2019-02-25T15:11:26.462Z,2.00
2019-02-25T15:13:30.858Z,2.00
2019-02-25T15:15:37.083Z,1.90
2019-02-25T15:17:42.078Z,1.80
2019-02-25T15:19:46.494Z,1.40
2019-02-25T15:21:51.792Z,1.80
2019-02-25T15:23:55.570Z,1.60
2019-02-25T15:26:05.119Z,1.83
2019-02-25T15:28:07.098Z,1.97
2019-02-25T15:30:25.612Z,2.30
2019-02-25T15:32:31.465Z,2.07
2019-02-25T15:34:37.471Z,1.90
2019-02-25T15:36:40.893Z,2.00
2019-02-25T15:38:44.665Z,1.83
2019-02-25T15:40:48.325Z,2.07
2019-02-25T15:43:10.463Z,1.20
2019-02-25T15:45:19.615Z,1.23
2019-02-25T15:47:23.343Z,1.27
2019-02-25T15:49:28.168Z,1.27
2019-02-25T15:51:34.350Z,1.33
2019-02-25T15:53:37.288Z,1.30
2019-02-25T15:55:41.143Z,1.20
2019-02-25T15:57:46.206Z,1.33
2019-02-25T15:59:50.026Z,1.20
2019-02-25T16:01:53.691Z,1.30
2019-02-25T16:04:02.261Z,1.20
2019-02-25T16:06:04.481Z,1.13
2019-02-25T16:08:11.020Z,1.20
2019-02-25T16:10:16.570Z,1.10
2019-02-25T16:12:23.165Z,1.37
2019-02-25T16:14:27.570Z,1.10
2019-02-25T16:16:31.165Z,1.03
2019-02-25T16:18:34.894Z,1.10
2019-02-25T16:20:38.655Z,1.00
2019-02-25T16:22:42.397Z,1.07
2019-02-25T16:24:46.169Z,1.30
2019-02-25T16:26:49.910Z,1.13
2019-02-25T16:28:55.184Z,1.00
2019-02-25T16:30:59.064Z,1.10
2019-02-25T16:33:05.021Z,2.67
2019-02-25T16:35:10.856Z,2.40
2019-02-25T16:37:14.582Z,2.00
2019-02-25T16:39:18.330Z,2.70
2019-02-25T16:41:27.495Z,6.53
2019-02-25T16:43:27.469Z,5.07
2019-02-25T16:45:34.925Z,3.40
2019-02-25T16:47:37.760Z,5.90
2019-02-25T16:49:41.510Z,6.97
2019-02-25T16:51:45.292Z,5.10
2019-02-25T16:53:51.899Z,3.17
2019-02-25T16:55:54.755Z,2.20
2019-02-25T16:57:59.142Z,1.40
2019-02-25T17:00:07.689Z,1.47
2019-02-25T17:02:14.087Z,3.10
2019-02-25T17:04:20.561Z,2.10
2019-02-25T17:06:22.434Z,3.00
2019-02-25T17:08:28.117Z,5.00
2019-02-25T17:10:33.723Z,6.20
2019-02-25T17:12:37.036Z,7.53
2019-02-25T17:14:41.016Z,6.73
2019-02-25T17:16:44.731Z,4.53
2019-02-25T17:18:48.508Z,2.70
2019-02-25T17:20:52.260Z,2.27
2019-02-25T17:22:55.956Z,1.57
2019-02-25T17:25:00.299Z,1.67
2019-02-25T17:27:06.895Z,2.03
2019-02-25T17:29:11.171Z,1.90
2019-02-25T17:31:16.334Z,6.70
2019-02-25T17:33:20.388Z,8.20
2019-02-25T17:35:26.649Z,9.27
2019-02-25T17:37:31.554Z,7.60
2019-02-25T17:39:37.565Z,5.07
2019-02-25T17:41:42.596Z,5.73
2019-02-25T17:43:46.697Z,7.13
2019-02-25T17:45:50.381Z,7.53
2019-02-25T17:47:58.187Z,8.23
2019-02-25T17:50:01.316Z,7.87
2019-02-25T17:52:04.914Z,7.10
2019-02-25T17:54:10.233Z,6.10
2019-02-25T17:56:14.074Z,7.00
2019-02-25T17:58:19.308Z,5.90
2019-02-25T18:00:29.876Z,4.03
2019-02-25T18:02:36.033Z,4.00
2019-02-25T18:04:40.035Z,11.40
2019-02-25T18:06:44.123Z,2.77
2019-02-25T18:08:48.629Z,4.90
2019-02-25T18:10:54.144Z,7.07
2019-02-25T18:13:00.722Z,6.97
2019-02-25T18:15:07.334Z,7.17
2019-02-25T18:17:12.234Z,6.23
2019-02-25T18:19:18.089Z,9.17
2019-02-25T18:21:21.843Z,6.63
2019-02-25T18:23:25.608Z,18.20
2019-02-25T18:25:29.378Z,14.40
2019-02-25T18:27:34.840Z,6.40
2019-02-25T18:29:38.570Z,3.50
2019-02-25T18:31:42.485Z,2.83
2019-02-25T18:33:48.025Z,2.50
2019-02-25T18:35:53.134Z,2.07
2019-02-25T18:37:58.099Z,3.00
2019-02-25T18:40:02.328Z,3.00
2019-02-25T18:42:06.016Z,2.80
2019-02-25T18:44:11.324Z,2.87
2019-02-25T18:46:15.297Z,2.40
2019-02-25T18:48:21.076Z,12.93
2019-02-25T18:50:26.879Z,12.17
2019-02-25T18:52:31.957Z,8.60
2019-02-25T18:54:38.657Z,6.50
2019-02-25T18:56:44.178Z,6.23
2019-02-25T18:58:47.778Z,6.57
2019-02-25T19:00:51.867Z,5.57
2019-02-25T19:02:56.270Z,4.57
2019-02-25T19:05:02.094Z,3.37
2019-02-25T19:07:07.939Z,3.90
2019-02-25T19:09:18.238Z,4.50
2019-02-25T19:11:23.572Z,5.00
2019-02-25T19:13:29.431Z,4.03
2019-02-25T19:15:33.218Z,3.97
2019-02-25T19:17:36.933Z,3.70
2019-02-25T19:19:41.227Z,3.10
2019-02-25T19:21:47.774Z,2.80
2019-02-25T19:23:51.442Z,1.80
2019-02-25T19:25:55.485Z,1.80
2019-02-25T19:27:59.232Z,1.67
2019-02-25T19:30:03.159Z,1.60
2019-02-25T19:32:06.873Z,1.90
2019-02-25T19:34:10.656Z,3.37
2019-02-25T19:36:14.511Z,2.57
2019-02-25T19:38:18.267Z,2.80
2019-02-25T19:40:24.507Z,3.80
2019-02-25T19:42:29.560Z,4.60
2019-02-25T19:44:34.703Z,4.40
2019-02-25T19:46:39.590Z,5.17
2019-02-25T19:48:44.788Z,5.00
2019-02-25T19:50:51.350Z,6.57
2019-02-25T19:52:54.151Z,6.90
2019-02-25T19:54:57.899Z,6.60
2019-02-25T19:57:01.614Z,6.50
2019-02-25T19:59:06.063Z,6.60
2019-02-25T20:01:11.045Z,5.67
2019-02-25T20:03:15.032Z,7.17
2019-02-25T20:05:19.766Z,7.30
2019-02-25T20:07:26.506Z,6.63
2019-02-25T20:09:29.997Z,6.27
2019-02-25T20:11:33.801Z,7.87
2019-02-25T20:13:37.510Z,7.40
2019-02-25T20:15:42.375Z,8.07
2019-02-25T20:17:48.331Z,9.27
2019-02-25T20:19:52.029Z,8.30
2019-02-25T20:21:56.860Z,9.17
2019-02-25T20:24:00.636Z,7.07
2019-02-25T20:26:04.581Z,5.27
2019-02-25T20:28:08.414Z,5.63
2019-02-25T20:30:19.650Z,5.70
2019-02-25T20:32:24.801Z,5.67
2019-02-25T20:34:30.424Z,5.93
2019-02-25T20:36:34.047Z,6.13
2019-02-25T20:38:39.283Z,6.37
2019-02-25T20:40:45.274Z,5.80
2019-02-25T20:42:50.967Z,6.37
2019-02-25T20:44:55.273Z,6.67
2019-02-25T20:47:00.157Z,9.90
2019-02-25T20:49:04.954Z,10.10
2019-02-25T20:51:10.244Z,11.53
2019-02-25T20:53:14.094Z,8.70
2019-02-25T20:55:17.862Z,6.57
2019-02-25T20:57:21.596Z,6.70
2019-02-25T20:59:25.776Z,6.80
2019-02-25T21:01:30.690Z,5.97
2019-02-25T21:03:34.370Z,11.40
2019-02-25T21:05:38.078Z,11.13
2019-02-25T21:07:41.752Z,11.73
2019-02-25T21:09:45.445Z,10.77
2019-02-25T21:11:49.121Z,11.87
2019-02-25T21:13:52.791Z,11.23
2019-02-25T21:15:58.230Z,10.73
2019-02-25T21:18:04.686Z,11.73
2019-02-25T21:20:10.146Z,11.57
2019-02-25T21:22:13.826Z,11.83
2019-02-25T21:24:17.512Z,11.43
2019-02-25T21:26:21.218Z,13.33
2019-02-25T21:28:27.088Z,11.97
2019-02-25T21:30:30.391Z,11.37
2019-02-25T21:32:34.054Z,11.53
2019-02-25T21:34:37.731Z,10.80
2019-02-25T21:36:41.413Z,7.87
2019-02-25T21:38:45.839Z,9.57
2019-02-25T21:40:51.038Z,10.70
2019-02-25T21:42:56.736Z,10.27
2019-02-25T21:45:02.325Z,8.33
2019-02-25T21:47:06.500Z,6.83
2019-02-25T21:49:10.302Z,6.43
2019-02-25T21:51:14.352Z,6.43
2019-02-25T21:53:18.453Z,6.40
2019-02-25T21:55:23.772Z,5.30
2019-02-25T21:57:29.169Z,5.37
2019-02-25T21:59:34.926Z,5.73
2019-02-25T22:01:39.470Z,4.77
2019-02-25T22:03:45.855Z,5.23
2019-02-25T22:05:51.408Z,5.80
2019-02-25T22:07:57.112Z,6.30
2019-02-25T22:10:00.219Z,6.40
2019-02-25T22:12:03.992Z,6.30
2019-02-25T22:14:07.653Z,7.10
2019-02-25T22:16:11.336Z,6.90
2019-02-25T22:18:15.055Z,6.83
2019-02-25T22:20:19.646Z,6.97
2019-02-25T22:22:26.221Z,8.97
2019-02-25T22:24:31.582Z,8.47
2019-02-25T22:26:35.553Z,5.90
2019-02-25T22:28:40.374Z,5.00
2019-02-25T22:30:45.184Z,5.10
2019-02-25T22:32:49.431Z,5.30
2019-02-25T22:34:53.315Z,5.20
2019-02-25T22:36:56.976Z,5.40
2019-02-25T22:39:01.895Z,5.47
2019-02-25T22:41:06.048Z,5.60
2019-02-25T22:43:10.532Z,5.80
2019-02-25T22:45:18.841Z,5.70
2019-02-25T22:47:23.088Z,5.23
2019-02-25T22:49:28.853Z,5.80
2019-02-25T22:51:33.183Z,5.63
2019-02-25T22:53:37.623Z,5.73
2019-02-25T22:55:42.605Z,5.90
2019-02-25T22:57:50.919Z,5.67
2019-02-25T22:59:52.456Z,5.47
2019-02-25T23:01:56.207Z,5.43
2019-02-25T23:03:59.902Z,5.60
2019-02-25T23:06:03.588Z,5.70
2019-02-25T23:08:10.956Z,5.73
2019-02-25T23:10:15.262Z,5.60
2019-02-25T23:12:19.760Z,6.27
2019-02-25T23:14:23.718Z,6.37
2019-02-25T23:16:27.413Z,7.77
2019-02-25T23:18:31.200Z,7.63
2019-02-25T23:20:34.890Z,7.73
2019-02-25T23:22:38.837Z,7.33
2019-02-25T23:24:43.864Z,7.40
2019-02-25T23:26:48.674Z,7.20
2019-02-25T23:28:53.807Z,8.53
2019-02-25T23:30:58.573Z,7.70
2019-02-25T23:33:02.238Z,8.50
2019-02-25T23:35:09.402Z,8.67
2019-02-25T23:37:14.612Z,8.97
2019-02-25T23:39:17.867Z,8.17
2019-02-25T23:41:21.604Z,7.80
2019-02-25T23:43:25.330Z,8.67
2019-02-25T23:45:29.049Z,8.53
2019-02-25T23:47:34.016Z,8.40
2019-02-25T23:49:38.976Z,7.43
2019-02-25T23:51:44.201Z,6.00
2019-02-25T23:53:50.766Z,6.27
2019-02-25T23:55:54.760Z,7.30
2019-02-25T23:57:59.762Z,6.60
